Prairie Rose, North Dakota
Current Conditions -  °F | °C
As of 12:53 PM on Sunday 23 Nov 2014 (Local Time) from KFAR Reporting Station
Overcast Overcast  
Wind Chill: 32°   Ceiling: 2500
Heat Index: 41°   Visibility: 10mi
Dew Point: 31°   Wind: 21mph
Humidity: 67%   Direction: 300°WNW
Pressure: 29.44"   Gusts: NA
Location:  46.8079°N, 96.8643°W
Report Text: KFAR 231853Z 30018KT 10SM BKN025 OVC030 05/M01 A2944 RMK AO2 SLP977 T00501006
Loading
Personal Weather Stations






























Interactive Weather Map New forecast layout! Learn more

10-Day Weather Forecast

Advertisements
Track Severe Weather on mobile